createdAt,value
2023-08-11T00:00:02.690Z,15.9
2023-08-11T00:15:02.998Z,15.8
2023-08-11T00:30:02.643Z,15.8
2023-08-11T00:45:02.873Z,15.7
2023-08-11T01:00:02.347Z,15.5
2023-08-11T01:15:02.745Z,15.0
2023-08-11T01:30:02.208Z,14.6
2023-08-11T01:45:02.694Z,14.0
2023-08-11T02:00:03.109Z,13.8
2023-08-11T02:15:02.696Z,13.4
2023-08-11T02:30:02.989Z,13.3
2023-08-11T02:45:02.402Z,13.0
2023-08-11T03:00:02.871Z,12.9
2023-08-11T03:15:02.259Z,12.7
2023-08-11T03:30:02.740Z,12.7
2023-08-11T03:45:03.214Z,12.7
2023-08-11T04:00:02.714Z,12.5
2023-08-11T04:15:03.076Z,12.5
2023-08-11T04:30:02.743Z,12.4
2023-08-11T04:45:02.969Z,12.4
2023-08-11T05:00:04.054Z,12.5
2023-08-11T05:15:02.856Z,12.7
2023-08-11T05:30:02.341Z,13.1
2023-08-11T05:45:02.807Z,13.6
2023-08-11T06:00:02.201Z,14.2
2023-08-11T06:15:02.759Z,14.9
2023-08-11T06:30:02.015Z,15.7
2023-08-11T06:45:02.458Z,16.3
2023-08-11T07:00:02.941Z,17.0
2023-08-11T07:15:02.312Z,19.0
2023-08-11T07:30:02.768Z,21.2
2023-08-11T07:45:03.188Z,23.8
2023-08-11T08:00:02.749Z,24.9
2023-08-11T08:15:03.098Z,26.3
2023-08-11T08:30:02.759Z,26.8
2023-08-11T08:45:02.986Z,27.4
2023-08-11T09:00:02.385Z,27.8
2023-08-11T09:15:02.843Z,27.8
2023-08-11T09:30:02.294Z,28.8
2023-08-11T09:45:02.763Z,29.1
2023-08-11T10:00:03.171Z,29.5
2023-08-11T10:15:02.819Z,30.0
2023-08-11T10:30:02.075Z,30.1
2023-08-11T10:45:02.492Z,30.1
2023-08-11T11:00:02.942Z,29.9
2023-08-11T11:15:02.355Z,30.0
2023-08-11T11:30:02.853Z,30.3
2023-08-11T11:45:04.216Z,30.6
2023-08-11T12:00:02.820Z,30.8
2023-08-11T12:15:03.146Z,31.3
2023-08-11T12:30:02.780Z,30.7
2023-08-11T12:45:03.017Z,31.1
2023-08-11T13:00:02.442Z,31.3
2023-08-11T13:15:02.916Z,31.2
2023-08-11T13:30:02.333Z,31.3
2023-08-11T13:45:02.846Z,31.3
2023-08-11T14:00:02.230Z,31.2
2023-08-11T14:15:02.823Z,31.4
2023-08-11T14:30:02.039Z,31.0
2023-08-11T14:45:02.485Z,31.2
2023-08-11T15:00:02.918Z,31.0
2023-08-11T15:15:02.370Z,30.7
2023-08-11T15:30:02.828Z,30.2
2023-08-11T15:45:02.246Z,29.8
2023-08-11T16:00:02.841Z,29.6
2023-08-11T16:15:02.150Z,29.1
2023-08-11T16:30:02.781Z,28.1
2023-08-11T16:45:03.035Z,27.5
2023-08-11T17:00:02.483Z,27.1
2023-08-11T17:15:02.930Z,26.7
2023-08-11T17:30:02.350Z,26.3
2023-08-11T17:45:02.849Z,25.6
2023-08-11T18:00:02.230Z,25.1
2023-08-11T18:15:02.860Z,24.3
2023-08-11T18:30:02.153Z,23.5
2023-08-11T18:45:02.599Z,22.8
2023-08-11T19:00:03.044Z,22.0
2023-08-11T19:15:02.438Z,21.2
2023-08-11T19:30:02.892Z,20.6
2023-08-11T19:45:02.319Z,20.1
2023-08-11T20:00:02.894Z,19.7
2023-08-11T20:15:02.201Z,19.2
2023-08-11T20:30:02.631Z,18.7
2023-08-11T20:45:03.056Z,18.5
2023-08-11T21:00:02.500Z,18.3
2023-08-11T21:15:02.943Z,18.1
2023-08-11T21:30:02.369Z,18.0
2023-08-11T21:45:02.964Z,17.9
2023-08-11T22:00:02.282Z,17.7
2023-08-11T22:15:02.904Z,17.6
2023-08-11T22:30:02.152Z,17.3
2023-08-11T22:45:02.624Z,17.4
2023-08-11T23:00:03.162Z,18.0
2023-08-11T23:15:02.463Z,18.4
2023-08-11T23:30:02.918Z,18.4
2023-08-11T23:45:02.311Z,18.8
